Time;durP1;ratioP1;P1;durP2;ratioP2;P2;SDS_P1;SDS_P2;PMS_P1;PMS_P2;Temp;Humidity;BMP_temperature;BMP_pressure;BME280_temperature;BME280_humidity;BME280_pressure;Samples;Min_cycle;Max_cycle;Signal;HPM_P1;HPM_P2
2023/03/01 00:02:17;;;;;;;8.27;3.87;;;27.60;61.70;;;;;;4990043;28;20220;-72
2023/03/01 00:04:45;;;;;;;10.17;3.97;;;27.80;61.30;;;;;;4983015;28;20711;-67
2023/03/01 00:07:12;;;;;;;10.27;3.47;;;27.90;61.60;;;;;;4987692;28;20766;-68
2023/03/01 00:09:39;;;;;;;8.63;4.30;;;27.80;61.60;;;;;;4986650;28;20200;-69
2023/03/01 00:12:07;;;;;;;6.87;4.30;;;28.00;60.80;;;;;;4990649;28;20321;-70
2023/03/01 00:14:35;;;;;;;7.20;4.93;;;28.10;59.00;;;;;;4966186;28;20190;-69
2023/03/01 00:17:03;;;;;;;9.90;4.57;;;28.10;57.80;;;;;;4991273;28;20216;-68
2023/03/01 00:19:32;;;;;;;6.47;4.00;;;27.80;56.20;;;;;;4985076;28;20624;-65
2023/03/01 00:21:59;;;;;;;14.13;4.23;;;28.00;56.20;;;;;;4988374;28;20208;-66
2023/03/01 00:24:27;;;;;;;7.77;4.10;;;28.10;56.00;;;;;;4996368;28;20196;-74
2023/03/01 00:26:58;;;;;;;7.90;3.77;;;28.10;54.50;;;;;;5011280;28;20365;-70
2023/03/01 00:29:26;;;;;;;6.57;3.60;;;28.00;55.00;;;;;;5003267;28;20208;-71
2023/03/01 00:31:53;;;;;;;9.00;3.90;;;28.00;55.70;;;;;;4991939;28;20185;-70
2023/03/01 00:34:20;;;;;;;7.33;3.53;;;27.90;56.30;;;;;;4991989;28;20286;-71
2023/03/01 00:36:48;;;;;;;5.30;3.30;;;27.50;58.60;;;;;;4992382;28;20189;-71
2023/03/01 00:39:16;;;;;;;9.23;3.00;;;27.80;58.50;;;;;;4992159;28;20529;-70
2023/03/01 00:41:44;;;;;;;7.17;3.33;;;27.60;58.20;;;;;;4992826;28;20213;-67
2023/03/01 00:44:12;;;;;;;10.63;3.00;;;27.80;56.90;;;;;;4992418;28;20273;-68
2023/03/01 00:46:40;;;;;;;3.70;2.53;;;28.10;56.10;;;;;;4999218;28;20189;-68
2023/03/01 00:49:07;;;;;;;5.10;2.30;;;28.30;55.60;;;;;;5011565;28;20304;-70
2023/03/01 00:51:34;;;;;;;6.13;2.20;;;28.50;55.70;;;;;;5011739;28;20272;-71
2023/03/01 00:54:03;;;;;;;5.07;2.30;;;28.30;56.60;;;;;;5001352;28;20200;-72
2023/03/01 00:56:31;;;;;;;8.97;3.40;;;28.40;57.80;;;;;;5012063;28;20196;-70
2023/03/01 00:58:58;;;;;;;8.33;2.40;;;28.40;58.50;;;;;;5009288;28;20275;-68
2023/03/01 01:01:31;;;;;;;8.40;2.73;;;28.60;57.70;;;;;;5011229;28;20903;-68
2023/03/01 01:04:01;;;;;;;5.13;2.20;;;28.50;58.30;;;;;;4996528;28;20644;-70
2023/03/01 01:06:35;;;;;;;4.87;2.47;;;28.70;59.20;;;;;;5007375;28;20288;-69
2023/03/01 01:09:04;;;;;;;5.57;1.83;;;28.80;59.10;;;;;;4992163;28;20234;-66
2023/03/01 01:11:32;;;;;;;8.23;2.33;;;28.80;57.30;;;;;;5011811;28;20235;-68
2023/03/01 01:14:00;;;;;;;10.43;2.33;;;28.80;57.60;;;;;;5012125;28;20224;-71
2023/03/01 01:16:28;;;;;;;7.43;1.90;;;28.80;57.80;;;;;;5012580;28;20177;-70
2023/03/01 01:18:57;;;;;;;7.47;1.83;;;28.80;57.90;;;;;;5009146;28;20636;-67
2023/03/01 01:21:25;;;;;;;6.47;2.03;;;28.80;58.40;;;;;;4990335;28;20204;-67
2023/03/01 01:23:53;;;;;;;9.07;2.23;;;28.50;58.50;;;;;;4974443;28;20190;-68
2023/03/01 01:26:26;;;;;;;4.83;1.90;;;28.20;60.00;;;;;;5010774;28;20184;-69
2023/03/01 01:28:55;;;;;;;7.50;1.83;;;27.90;60.50;;;;;;5009641;28;20734;-67
2023/03/01 01:31:24;;;;;;;13.50;2.17;;;28.00;60.30;;;;;;4976378;28;20191;-68
2023/03/01 01:33:52;;;;;;;4.27;1.40;;;28.20;60.70;;;;;;5009587;28;20231;-65
2023/03/01 01:36:20;;;;;;;9.23;1.43;;;27.90;60.60;;;;;;4998622;28;20197;-65
2023/03/01 01:38:47;;;;;;;7.27;1.83;;;27.90;60.90;;;;;;4994364;28;20186;-65
2023/03/01 01:41:15;;;;;;;7.93;2.10;;;28.00;60.50;;;;;;4995631;28;20197;-66
2023/03/01 01:43:49;;;;;;;6.60;1.50;;;28.20;59.90;;;;;;5001597;28;20182;-66
2023/03/01 01:46:33;;;;;;;5.27;1.63;;;28.20;58.20;;;;;;4989369;28;20252;-65
2023/03/01 01:49:02;;;;;;;4.60;1.50;;;28.40;57.30;;;;;;4996684;28;20689;-66
2023/03/01 01:51:38;;;;;;;8.47;1.50;;;28.40;56.80;;;;;;4987045;28;20640;-67
2023/03/01 01:54:10;;;;;;;5.47;1.47;;;28.40;55.70;;;;;;4991153;28;20201;-66
2023/03/01 01:56:39;;;;;;;5.83;1.80;;;28.40;56.20;;;;;;4994135;28;20277;-67
2023/03/01 01:59:06;;;;;;;4.90;1.80;;;28.30;56.00;;;;;;4992877;28;20188;-70
2023/03/01 02:01:34;;;;;;;7.90;1.50;;;28.70;54.90;;;;;;4990417;28;20190;-67
2023/03/01 02:04:01;;;;;;;6.77;1.90;;;28.80;55.00;;;;;;4993568;28;20207;-65
2023/03/01 02:06:34;;;;;;;2.73;1.37;;;29.00;54.70;;;;;;4989177;28;20257;-68
2023/03/01 02:09:11;;;;;;;3.83;1.60;;;29.20;53.40;;;;;;4989628;28;20249;-68
2023/03/01 02:11:39;;;;;;;4.03;1.53;;;29.00;53.40;;;;;;4982718;28;20587;-66
2023/03/01 02:14:06;;;;;;;3.93;1.53;;;28.60;54.80;;;;;;4990714;28;20186;-66
2023/03/01 02:16:34;;;;;;;5.80;1.93;;;28.80;54.40;;;;;;4994848;28;20185;-66
2023/03/01 02:19:04;;;;;;;4.67;1.53;;;29.00;53.20;;;;;;4995949;28;20213;-70
2023/03/01 02:21:56;;;;;;;2.40;1.50;;;28.90;52.10;;;;;;4993461;28;20256;-64
2023/03/01 02:24:50;;;;;;;2.63;1.40;;;28.90;52.10;;;;;;4992621;28;20186;-68
2023/03/01 02:27:21;;;;;;;2.40;1.20;;;29.00;52.70;;;;;;4991514;28;20232;-68
2023/03/01 02:29:49;;;;;;;6.10;1.37;;;29.20;51.10;;;;;;4985839;28;20190;-66
2023/03/01 02:32:24;;;;;;;3.03;1.10;;;29.30;51.00;;;;;;4997259;28;20178;-67
2023/03/01 02:34:56;;;;;;;3.20;1.50;;;29.40;50.20;;;;;;4993049;28;20192;-65
2023/03/01 02:37:27;;;;;;;6.27;1.50;;;29.50;51.00;;;;;;5006493;28;20256;-64
2023/03/01 02:40:06;;;;;;;4.40;1.33;;;29.70;49.90;;;;;;5002696;28;20192;-68
2023/03/01 02:45:32;;;;;;;3.67;1.50;;;29.30;50.50;;;;;;4985390;28;20189;-67
2023/03/01 02:48:00;;;;;;;3.93;1.80;;;29.10;52.40;;;;;;4989994;28;20228;-77
2023/03/01 02:50:30;;;;;;;4.30;1.53;;;28.80;52.10;;;;;;4991812;28;20325;-73
2023/03/01 02:53:27;;;;;;;3.43;1.23;;;28.40;52.00;;;;;;5000473;28;20174;-68
2023/03/01 02:55:55;;;;;;;2.53;1.20;;;28.50;51.30;;;;;;4993718;28;20276;-70
2023/03/01 02:58:22;;;;;;;3.30;1.43;;;28.90;52.40;;;;;;4999706;28;20190;-73
2023/03/01 03:00:49;;;;;;;1.70;1.10;;;29.30;51.40;;;;;;4997153;28;20174;-70
2023/03/01 03:03:19;;;;;;;1.60;0.90;;;29.80;50.00;;;;;;5001414;28;20251;-67
2023/03/01 03:05:48;;;;;;;1.83;1.10;;;30.30;48.50;;;;;;4998672;28;20583;-67
2023/03/01 03:08:23;;;;;;;1.90;1.30;;;30.50;46.80;;;;;;4992274;28;20218;-72
2023/03/01 03:10:51;;;;;;;4.85;1.45;;;30.70;46.90;;;;;;5000455;28;20244;-65
2023/03/01 03:13:18;;;;;;;2.90;1.30;;;31.00;48.00;;;;;;5007857;28;20190;-68
2023/03/01 03:15:46;;;;;;;7.05;1.77;;;30.70;48.80;;;;;;5005776;28;20192;-70
2023/03/01 03:18:17;;;;;;;2.50;1.20;;;30.90;48.30;;;;;;4998843;28;20192;-68
2023/03/01 03:20:45;;;;;;;6.15;1.83;;;31.20;47.50;;;;;;5002093;28;20185;-74
2023/03/01 03:23:13;;;;;;;4.63;1.30;;;31.40;48.10;;;;;;5006633;28;20192;-77
2023/03/01 03:25:40;;;;;;;5.63;1.42;;;31.00;48.40;;;;;;5002990;28;20185;-71
2023/03/01 03:28:10;;;;;;;4.78;1.10;;;30.80;49.30;;;;;;4994061;28;20296;-67
2023/03/01 03:30:41;;;;;;;9.35;1.40;;;30.40;49.80;;;;;;4981856;28;20258;-65
2023/03/01 03:33:10;;;;;;;2.67;1.05;;;30.40;50.40;;;;;;5001172;28;20176;-66
2023/03/01 03:35:47;;;;;;;8.50;1.60;;;30.50;50.90;;;;;;4990933;28;20237;-68
2023/03/01 03:38:17;;;;;;;9.73;1.90;;;29.90;53.00;;;;;;4994348;28;20236;-70
2023/03/01 03:40:50;;;;;;;9.13;1.80;;;30.10;53.70;;;;;;4995245;28;20183;-70
2023/03/01 03:43:24;;;;;;;9.70;1.57;;;29.90;54.90;;;;;;4999003;28;20178;-73
2023/03/01 03:45:53;;;;;;;8.83;2.30;;;29.80;55.60;;;;;;4994614;28;20247;-70
2023/03/01 03:48:21;;;;;;;5.53;1.40;;;29.30;56.20;;;;;;4990559;28;20276;-72
2023/03/01 03:50:51;;;;;;;7.00;1.40;;;29.30;55.40;;;;;;4993278;28;20660;-71
2023/03/01 03:53:19;;;;;;;4.27;1.23;;;29.10;54.50;;;;;;4991408;28;20186;-75
2023/03/01 03:55:49;;;;;;;8.17;1.67;;;29.00;53.90;;;;;;4994807;28;20237;-67
2023/03/01 03:58:19;;;;;;;2.97;1.27;;;29.10;53.30;;;;;;4988143;28;20252;-68
2023/03/01 04:00:48;;;;;;;2.47;0.70;;;29.90;52.00;;;;;;4992369;28;20593;-73
2023/03/01 04:03:18;;;;;;;4.37;0.83;;;29.80;50.20;;;;;;4985710;28;20190;-73
2023/03/01 04:05:47;;;;;;;6.88;1.75;;;29.70;50.20;;;;;;4988790;28;20296;-63
2023/03/01 04:08:14;;;;;;;8.30;1.23;;;29.60;50.30;;;;;;4970301;28;20218;-65
2023/03/01 04:10:44;;;;;;;3.05;1.30;;;29.60;49.10;;;;;;4970034;28;20226;-70
2023/03/01 04:13:19;;;;;;;4.83;1.03;;;29.50;48.90;;;;;;4986305;28;20178;-67
2023/03/01 04:15:51;;;;;;;3.60;0.90;;;29.30;47.80;;;;;;4987433;28;20846;-73
2023/03/01 04:18:20;;;;;;;3.20;1.10;;;29.30;47.40;;;;;;4986558;28;20276;-69
2023/03/01 04:20:48;;;;;;;5.30;1.03;;;29.70;47.60;;;;;;4987040;28;20217;-69
2023/03/01 04:23:20;;;;;;;6.68;1.10;;;29.90;47.10;;;;;;4988533;28;20265;-70
2023/03/01 04:25:55;;;;;;;4.20;0.73;;;30.00;47.20;;;;;;4988046;28;20252;-68
2023/03/01 04:28:29;;;;;;;5.32;0.93;;;29.90;47.40;;;;;;4988098;28;20205;-71
2023/03/01 04:31:00;;;;;;;6.25;1.00;;;30.00;47.90;;;;;;4973455;28;20663;-76
2023/03/01 04:33:27;;;;;;;6.10;1.00;;;29.50;48.80;;;;;;4990193;28;20178;-74
2023/03/01 04:35:54;;;;;;;6.50;1.10;;;29.40;49.10;;;;;;4986478;28;20182;-72
2023/03/01 04:38:22;;;;;;;4.87;1.43;;;29.00;50.50;;;;;;4991196;28;20173;-69
2023/03/01 04:40:49;;;;;;;6.55;1.40;;;29.30;50.10;;;;;;4991487;28;20169;-68
2023/03/01 04:43:17;;;;;;;5.28;1.15;;;29.10;50.70;;;;;;4990057;28;20260;-73
2023/03/01 04:45:44;;;;;;;2.78;1.33;;;29.30;50.10;;;;;;4986467;28;20553;-72
2023/03/01 04:48:12;;;;;;;5.57;1.27;;;29.10;50.40;;;;;;4989024;28;20202;-66
2023/03/01 04:50:39;;;;;;;3.72;1.17;;;29.10;50.30;;;;;;4988825;28;20632;-76
2023/03/01 04:53:06;;;;;;;6.10;1.50;;;29.10;50.20;;;;;;4984100;28;20185;-75
2023/03/01 04:55:35;;;;;;;9.00;1.90;;;29.30;50.60;;;;;;4983046;28;20182;-67
2023/03/01 04:58:02;;;;;;;4.40;1.47;;;29.40;50.20;;;;;;4984665;28;20182;-71
2023/03/01 05:00:29;;;;;;;11.15;1.20;;;29.50;50.10;;;;;;4984692;28;20182;-70
2023/03/01 05:03:00;;;;;;;7.43;1.30;;;29.80;50.00;;;;;;4982258;28;20188;-69
2023/03/01 05:05:33;;;;;;;4.77;1.33;;;30.20;49.30;;;;;;4987658;28;20178;-74
2023/03/01 05:08:04;;;;;;;5.00;1.40;;;29.90;49.70;;;;;;4989007;28;20919;-67
2023/03/01 05:10:34;;;;;;;5.40;1.42;;;30.00;49.70;;;;;;4988855;28;20233;-68
2023/03/01 05:13:03;;;;;;;4.28;1.52;;;30.10;49.40;;;;;;4989629;28;20205;-64
2023/03/01 05:15:32;;;;;;;7.13;1.45;;;30.10;49.90;;;;;;4991139;28;20170;-69
2023/03/01 05:18:00;;;;;;;3.55;1.10;;;29.90;49.60;;;;;;4989845;28;20273;-69
2023/03/01 05:20:29;;;;;;;6.47;1.60;;;29.10;52.00;;;;;;4991943;28;20596;-76
2023/03/01 05:23:04;;;;;;;10.88;2.22;;;29.40;51.40;;;;;;4991018;28;20650;-69
2023/03/01 05:25:33;;;;;;;9.37;1.80;;;29.60;51.40;;;;;;4987748;28;20200;-76
2023/03/01 05:28:05;;;;;;;5.03;1.43;;;28.70;53.30;;;;;;4990473;28;20209;-69
2023/03/01 05:30:34;;;;;;;6.77;1.47;;;28.60;53.70;;;;;;4991815;28;20227;-66
2023/03/01 05:33:02;;;;;;;7.00;1.70;;;28.90;53.40;;;;;;4991285;28;20668;-73
2023/03/01 05:35:32;;;;;;;8.50;1.53;;;29.20;53.10;;;;;;4990477;28;20186;-66
2023/03/01 05:37:59;;;;;;;7.70;1.83;;;29.00;52.90;;;;;;4991359;28;20178;-66
2023/03/01 05:40:27;;;;;;;5.73;1.80;;;29.10;53.40;;;;;;4989780;28;20186;-67
2023/03/01 05:42:56;;;;;;;8.10;1.77;;;30.40;50.90;;;;;;4990646;28;20174;-68
2023/03/01 05:45:26;;;;;;;5.10;1.75;;;30.10;51.40;;;;;;4973442;28;20272;-69
2023/03/01 05:47:54;;;;;;;4.43;1.75;;;29.50;52.80;;;;;;4990132;28;20224;-66
2023/03/01 05:50:29;;;;;;;4.50;1.77;;;29.80;53.00;;;;;;4991997;28;20321;-67
2023/03/01 05:53:08;;;;;;;6.97;1.70;;;29.60;52.90;;;;;;4988670;28;20538;-70
2023/03/01 05:55:36;;;;;;;10.18;2.10;;;29.40;53.00;;;;;;4989294;28;20197;-68
2023/03/01 05:58:06;;;;;;;8.48;2.10;;;29.30;53.50;;;;;;4990008;28;20281;-65
2023/03/01 06:00:34;;;;;;;8.18;1.98;;;29.50;53.20;;;;;;4990352;28;20261;-69
2023/03/01 06:03:02;;;;;;;6.70;2.33;;;29.50;53.60;;;;;;4990692;28;20186;-67
2023/03/01 06:05:30;;;;;;;7.57;2.23;;;29.00;55.40;;;;;;4988756;28;20169;-67
2023/03/01 06:08:00;;;;;;;12.03;2.53;;;29.30;54.70;;;;;;4989795;28;20222;-71
2023/03/01 06:10:28;;;;;;;10.17;2.30;;;29.80;53.70;;;;;;4991565;28;20214;-68
2023/03/01 06:12:56;;;;;;;11.70;2.40;;;29.50;54.20;;;;;;4992282;28;20703;-67
2023/03/01 06:15:24;;;;;;;13.77;2.45;;;29.50;54.60;;;;;;4988917;28;20193;-66
2023/03/01 06:17:52;;;;;;;10.43;1.93;;;29.40;54.50;;;;;;4987008;28;20185;-67
2023/03/01 06:20:24;;;;;;;8.98;2.28;;;29.20;55.80;;;;;;4990046;28;20198;-69
2023/03/01 06:22:51;;;;;;;7.47;2.10;;;29.10;56.10;;;;;;4985390;28;20307;-69
2023/03/01 06:25:23;;;;;;;11.20;2.50;;;28.60;57.40;;;;;;4986784;28;20949;-67
2023/03/01 06:27:52;;;;;;;10.93;2.40;;;28.90;56.70;;;;;;4988177;28;20691;-67
2023/03/01 06:30:21;;;;;;;13.80;2.73;;;28.80;57.20;;;;;;4991181;28;20213;-69
2023/03/01 06:32:49;;;;;;;9.60;2.60;;;28.60;58.20;;;;;;4987397;28;20295;-73
2023/03/01 06:35:17;;;;;;;8.23;2.23;;;28.60;58.40;;;;;;4990489;28;20221;-67
2023/03/01 06:37:46;;;;;;;13.00;2.97;;;28.70;58.00;;;;;;4985107;28;20185;-66
2023/03/01 06:40:14;;;;;;;10.60;2.50;;;28.30;59.90;;;;;;4989087;28;20288;-67
2023/03/01 06:42:43;;;;;;;12.83;2.90;;;28.40;59.60;;;;;;4988788;28;20205;-65
2023/03/01 06:45:11;;;;;;;13.90;2.92;;;29.00;58.20;;;;;;4989973;28;20174;-65
2023/03/01 06:47:39;;;;;;;12.37;2.67;;;28.30;59.80;;;;;;4987840;28;20222;-68
2023/03/01 06:50:06;;;;;;;13.90;2.67;;;28.40;59.80;;;;;;4991115;28;20177;-65
2023/03/01 06:52:34;;;;;;;10.50;2.50;;;28.20;60.70;;;;;;4987784;28;20192;-66
2023/03/01 06:55:01;;;;;;;13.13;3.20;;;27.60;62.50;;;;;;4987348;28;20185;-66
2023/03/01 06:57:30;;;;;;;11.63;2.80;;;27.00;64.20;;;;;;4983143;28;20185;-64
2023/03/01 06:59:57;;;;;;;11.67;2.93;;;27.00;63.50;;;;;;4983185;28;20187;-66
2023/03/01 07:02:24;;;;;;;16.77;3.20;;;27.50;62.50;;;;;;4988815;28;20194;-66
2023/03/01 07:04:52;;;;;;;15.10;3.23;;;27.50;61.30;;;;;;4989607;28;20190;-68
2023/03/01 07:07:19;;;;;;;14.93;3.63;;;27.60;61.00;;;;;;4992461;28;20189;-66
2023/03/01 07:09:49;;;;;;;13.40;3.00;;;27.80;60.30;;;;;;4991364;28;20571;-69
2023/03/01 07:12:16;;;;;;;10.63;3.13;;;27.40;61.40;;;;;;4988920;28;20237;-72
2023/03/01 07:14:45;;;;;;;11.77;2.73;;;27.90;60.20;;;;;;4998225;28;20190;-67
2023/03/01 07:17:12;;;;;;;13.43;3.17;;;27.80;60.20;;;;;;4992716;28;20198;-69
2023/03/01 07:19:39;;;;;;;12.30;3.20;;;28.10;59.40;;;;;;4993157;28;20186;-73
2023/03/01 07:22:09;;;;;;;11.20;2.83;;;28.10;59.60;;;;;;4995328;28;20590;-69
2023/03/01 07:24:36;;;;;;;15.27;2.93;;;27.80;60.00;;;;;;5002627;28;20683;-70
2023/03/01 07:27:04;;;;;;;14.43;2.70;;;27.60;61.00;;;;;;4996890;28;20948;-73
2023/03/01 07:29:31;;;;;;;13.83;2.83;;;27.20;61.60;;;;;;4991008;28;20182;-71
2023/03/01 07:31:59;;;;;;;16.10;3.63;;;27.10;62.40;;;;;;4995222;28;20208;-75
2023/03/01 07:34:26;;;;;;;12.23;2.70;;;27.20;62.60;;;;;;4993963;28;20530;-75
2023/03/01 07:36:54;;;;;;;13.13;3.60;;;27.00;63.10;;;;;;4992441;28;20174;-76
2023/03/01 07:39:22;;;;;;;11.30;3.33;;;26.80;63.30;;;;;;5011936;28;20213;-77
2023/03/01 07:41:51;;;;;;;12.10;3.03;;;26.90;63.50;;;;;;5013539;28;20181;-72
2023/03/01 07:44:18;;;;;;;15.73;3.23;;;26.80;63.90;;;;;;5009601;28;20200;-75
2023/03/01 07:46:45;;;;;;;13.83;3.30;;;26.10;66.10;;;;;;5002367;28;20280;-76
2023/03/01 07:49:13;;;;;;;13.17;3.13;;;26.20;66.40;;;;;;5001048;28;20225;-77
2023/03/01 07:51:40;;;;;;;16.90;3.40;;;25.80;67.80;;;;;;4993740;28;20193;-77
2023/03/01 07:54:07;;;;;;;13.13;3.13;;;25.50;68.30;;;;;;5007027;28;20189;-77
2023/03/01 07:56:35;;;;;;;16.53;3.30;;;25.10;69.60;;;;;;4997235;28;20232;-70
2023/03/01 07:59:02;;;;;;;13.50;3.27;;;25.00;70.20;;;;;;4983240;28;20186;-75
2023/03/01 08:01:30;;;;;;;14.50;3.17;;;24.70;71.00;;;;;;5012375;28;20698;-74
2023/03/01 08:03:57;;;;;;;14.77;3.43;;;24.70;71.60;;;;;;5004330;28;20179;-72
2023/03/01 08:06:25;;;;;;;13.70;3.47;;;24.80;71.80;;;;;;5006874;28;20188;-71
2023/03/01 08:08:52;;;;;;;15.30;3.43;;;24.60;71.70;;;;;;5001086;28;20209;-68
2023/03/01 08:11:19;;;;;;;14.97;3.13;;;24.50;72.20;;;;;;5013183;28;20235;-70
2023/03/01 08:13:48;;;;;;;16.27;3.33;;;24.30;72.40;;;;;;4995503;28;20181;-75
2023/03/01 08:16:16;;;;;;;14.67;3.23;;;24.30;72.80;;;;;;4991006;28;20277;-76
2023/03/01 08:18:44;;;;;;;14.93;3.20;;;24.20;72.90;;;;;;5002680;28;20640;-73
2023/03/01 08:21:17;;;;;;;13.73;3.33;;;24.30;73.20;;;;;;4996947;28;20643;-68
2023/03/01 08:23:45;;;;;;;17.37;3.23;;;24.20;72.90;;;;;;5012790;28;20204;-75
2023/03/01 08:26:18;;;;;;;16.77;3.53;;;24.10;73.40;;;;;;5012608;28;20592;-70
2023/03/01 08:28:46;;;;;;;13.77;3.83;;;24.00;73.50;;;;;;5001416;28;20679;-70
2023/03/01 08:31:18;;;;;;;11.73;3.70;;;24.00;73.60;;;;;;5008067;28;20205;-72
2023/03/01 08:33:50;;;;;;;16.47;3.17;;;24.00;73.50;;;;;;5003148;28;20218;-65
2023/03/01 08:36:19;;;;;;;21.73;4.10;;;24.00;73.60;;;;;;4996905;28;20189;-65
2023/03/01 08:38:46;;;;;;;13.80;3.17;;;23.90;73.80;;;;;;4992161;28;20191;-69
2023/03/01 08:41:14;;;;;;;14.53;3.37;;;24.00;74.00;;;;;;5000482;28;20220;-72
2023/03/01 08:43:42;;;;;;;13.03;3.30;;;23.80;74.30;;;;;;4996475;28;20213;-66
2023/03/01 08:46:10;;;;;;;14.83;3.60;;;23.80;74.70;;;;;;5012848;28;20188;-70
2023/03/01 08:48:37;;;;;;;15.57;3.27;;;23.80;74.60;;;;;;5010904;28;20213;-76
2023/03/01 08:51:13;;;;;;;15.53;3.83;;;23.80;74.40;;;;;;5016944;28;20251;-74
2023/03/01 08:53:41;;;;;;;17.17;3.40;;;23.70;74.90;;;;;;4985794;28;20235;-75
2023/03/01 08:56:09;;;;;;;17.03;3.40;;;23.70;74.80;;;;;;5003385;28;20193;-71
2023/03/01 08:58:37;;;;;;;17.37;3.33;;;23.80;74.90;;;;;;4985086;28;20538;-73
2023/03/01 09:01:12;;;;;;;15.47;3.20;;;23.80;74.30;;;;;;5009363;28;20235;-73
2023/03/01 09:03:39;;;;;;;18.27;4.10;;;23.80;74.20;;;;;;5016168;28;20651;-71
2023/03/01 09:06:07;;;;;;;12.20;3.00;;;23.80;74.10;;;;;;5014295;28;20170;-70
2023/03/01 09:08:40;;;;;;;12.80;3.13;;;23.80;74.10;;;;;;4997910;28;20206;-72
2023/03/01 09:11:09;;;;;;;15.97;3.60;;;23.90;74.00;;;;;;5002710;28;20713;-75
2023/03/01 09:13:37;;;;;;;16.07;3.20;;;23.90;73.60;;;;;;4995766;28;20189;-74
2023/03/01 09:16:07;;;;;;;14.63;3.23;;;23.90;73.80;;;;;;4996157;28;20202;-71
2023/03/01 09:18:35;;;;;;;11.67;2.90;;;23.90;74.10;;;;;;4995571;28;20182;-70
2023/03/01 09:21:07;;;;;;;11.93;2.93;;;23.80;74.20;;;;;;5010794;28;20271;-69
2023/03/01 09:23:40;;;;;;;12.97;3.47;;;23.80;74.50;;;;;;5011905;28;20181;-69
2023/03/01 09:26:09;;;;;;;13.90;3.40;;;23.80;74.60;;;;;;5016230;28;20263;-70
2023/03/01 09:28:37;;;;;;;14.63;3.40;;;23.80;74.60;;;;;;5009715;28;20671;-68
2023/03/01 09:31:05;;;;;;;17.50;4.00;;;23.80;74.40;;;;;;4995951;28;20181;-76
2023/03/01 09:33:33;;;;;;;11.63;3.80;;;23.80;74.20;;;;;;4995971;28;20182;-66
2023/03/01 09:36:03;;;;;;;17.03;3.97;;;23.80;74.40;;;;;;5016284;28;20172;-69
2023/03/01 09:38:31;;;;;;;15.27;3.47;;;23.80;74.50;;;;;;5015260;28;20651;-68
2023/03/01 09:40:59;;;;;;;14.87;3.40;;;23.80;74.80;;;;;;5016217;28;20228;-72
2023/03/01 09:43:41;;;;;;;23.63;4.30;;;23.80;74.80;;;;;;4996298;28;20276;-65
2023/03/01 09:46:16;;;;;;;17.50;4.33;;;23.90;74.50;;;;;;4991429;28;20239;-68
2023/03/01 09:49:03;;;;;;;18.00;3.73;;;23.90;74.90;;;;;;5003722;28;20228;-69
2023/03/01 09:51:35;;;;;;;14.33;3.47;;;23.80;75.10;;;;;;5000352;28;20181;-68
2023/03/01 09:54:05;;;;;;;15.60;3.67;;;23.80;75.40;;;;;;4995024;28;20185;-71
2023/03/01 09:56:38;;;;;;;14.70;3.53;;;23.80;75.40;;;;;;4996214;28;20277;-71
2023/03/01 09:59:14;;;;;;;20.70;3.80;;;23.80;75.40;;;;;;4998120;28;20320;-66
2023/03/01 10:01:52;;;;;;;18.97;3.83;;;23.80;75.40;;;;;;5005416;28;20220;-70
2023/03/01 10:04:39;;;;;;;13.97;3.20;;;23.80;75.30;;;;;;5015534;28;20177;-68
2023/03/01 10:07:12;;;;;;;14.20;3.13;;;23.80;75.30;;;;;;4996669;28;20182;-71
2023/03/01 10:09:42;;;;;;;14.47;3.50;;;23.80;75.20;;;;;;5007272;28;20190;-71
2023/03/01 10:12:19;;;;;;;15.70;3.80;;;23.80;74.90;;;;;;4998090;28;20297;-69
2023/03/01 10:15:02;;;;;;;18.27;3.47;;;23.70;75.10;;;;;;5005881;28;20186;-66
2023/03/01 10:17:58;;;;;;;17.70;3.10;;;23.70;75.40;;;;;;5011961;28;20178;-69
2023/03/01 10:20:33;;;;;;;13.70;3.83;;;23.80;75.40;;;;;;4997795;28;20278;-68
2023/03/01 10:23:01;;;;;;;12.70;3.37;;;23.80;75.40;;;;;;4996614;28;20176;-69
2023/03/01 10:25:50;;;;;;;14.57;3.77;;;23.80;75.60;;;;;;4994632;28;20212;-67
2023/03/01 10:28:44;;;;;;;19.23;4.00;;;23.80;75.90;;;;;;5009360;28;20213;-66
2023/03/01 10:31:16;;;;;;;15.57;3.73;;;23.80;76.00;;;;;;5001230;28;20249;-71
2023/03/01 10:33:43;;;;;;;19.17;3.90;;;23.80;76.10;;;;;;4993428;28;20196;-67
2023/03/01 10:36:11;;;;;;;16.83;3.40;;;23.70;76.10;;;;;;4995571;28;20162;-65
2023/03/01 10:38:57;;;;;;;24.70;4.67;;;23.80;75.90;;;;;;4997176;28;20783;-66
2023/03/01 10:41:27;;;;;;;19.17;4.20;;;23.80;76.20;;;;;;5009104;28;20182;-71
2023/03/01 10:44:00;;;;;;;21.87;3.93;;;23.80;77.20;;;;;;5004311;28;20671;-69
2023/03/01 10:46:36;;;;;;;18.90;3.70;;;23.60;79.50;;;;;;5009844;28;20181;-71
2023/03/01 10:49:19;;;;;;;20.13;4.30;;;23.40;79.90;;;;;;5014693;28;20632;-71
2023/03/01 10:51:49;;;;;;;15.70;4.20;;;23.30;82.20;;;;;;5014465;28;20185;-66
2023/03/01 10:54:27;;;;;;;21.23;3.97;;;23.20;83.60;;;;;;5010152;28;20177;-68
2023/03/01 10:57:00;;;;;;;18.60;3.97;;;23.20;84.50;;;;;;5014778;28;20822;-73
2023/03/01 10:59:34;;;;;;;21.27;5.13;;;23.10;85.30;;;;;;4978455;28;20519;-66
2023/03/01 11:02:22;;;;;;;21.33;4.20;;;23.00;85.40;;;;;;5001896;28;20217;-71
2023/03/01 11:05:20;;;;;;;22.97;4.23;;;23.00;85.90;;;;;;5002514;28;20186;-68
2023/03/01 11:07:56;;;;;;;14.63;3.63;;;22.80;85.70;;;;;;4963655;28;20341;-67
2023/03/01 11:10:27;;;;;;;18.03;4.13;;;22.80;85.30;;;;;;5007313;28;20177;-69
2023/03/01 11:13:15;;;;;;;16.00;3.70;;;22.80;85.30;;;;;;5014503;28;20188;-70
2023/03/01 11:15:43;;;;;;;15.80;3.30;;;22.80;85.30;;;;;;5000580;28;20547;-70
2023/03/01 11:18:24;;;;;;;17.00;3.80;;;22.70;85.10;;;;;;4999322;28;20182;-73
2023/03/01 11:20:55;;;;;;;19.07;3.67;;;22.60;85.00;;;;;;4987855;28;20189;-69
2023/03/01 11:23:24;;;;;;;17.83;3.17;;;22.60;84.70;;;;;;5006091;28;20182;-71
2023/03/01 11:26:07;;;;;;;18.93;3.97;;;22.60;84.20;;;;;;5007870;28;20193;-72
2023/03/01 11:28:39;;;;;;;15.83;3.07;;;22.70;84.50;;;;;;5014054;28;20256;-71
2023/03/01 11:31:14;;;;;;;19.90;4.13;;;22.80;84.00;;;;;;5012670;28;20218;-73
2023/03/01 11:34:00;;;;;;;17.33;3.80;;;22.80;84.10;;;;;;4994418;28;20169;-66
2023/03/01 11:36:42;;;;;;;15.50;3.67;;;22.80;84.20;;;;;;4998553;28;20670;-67
2023/03/01 11:39:33;;;;;;;16.27;3.90;;;22.80;84.00;;;;;;5010925;28;20185;-67
2023/03/01 11:42:11;;;;;;;12.73;3.10;;;22.80;83.90;;;;;;5013825;28;20169;-68
2023/03/01 11:44:40;;;;;;;13.70;3.43;;;22.80;83.30;;;;;;5014042;28;20174;-69
2023/03/01 11:47:39;;;;;;;16.50;3.57;;;22.80;83.30;;;;;;5013504;28;20574;-66
2023/03/01 11:50:24;;;;;;;13.57;3.77;;;22.80;82.30;;;;;;5007736;28;20647;-71
2023/03/01 11:53:09;;;;;;;13.40;3.00;;;22.80;82.20;;;;;;5008625;28;20185;-73
2023/03/01 11:55:54;;;;;;;19.63;3.40;;;22.80;82.40;;;;;;4974446;28;20167;-74
2023/03/01 11:58:31;;;;;;;14.47;3.37;;;22.80;82.00;;;;;;4990973;28;20180;-75
2023/03/01 12:01:19;;;;;;;14.63;3.27;;;22.80;81.30;;;;;;5013589;28;20252;-75
2023/03/01 12:04:08;;;;;;;14.67;3.53;;;22.80;81.50;;;;;;5013333;28;20264;-77
2023/03/01 12:06:51;;;;;;;10.70;2.87;;;22.80;80.80;;;;;;4999798;28;20182;-74
2023/03/01 12:09:34;;;;;;;12.13;3.07;;;22.80;80.60;;;;;;4999494;28;20213;-75
2023/03/01 12:12:37;;;;;;;12.10;3.20;;;22.80;80.10;;;;;;5012992;28;20247;-74
2023/03/01 12:15:21;;;;;;;12.53;3.30;;;22.80;80.20;;;;;;5013551;28;20207;-75
2023/03/01 12:17:48;;;;;;;11.27;3.60;;;22.80;80.10;;;;;;5012789;28;20181;-75
2023/03/01 12:20:23;;;;;;;13.40;2.90;;;22.70;79.70;;;;;;5013113;28;20181;-76
2023/03/01 12:23:18;;;;;;;10.67;2.77;;;22.80;80.00;;;;;;5005062;28;20891;-75
2023/03/01 12:26:03;;;;;;;13.43;3.20;;;22.80;79.50;;;;;;5012246;28;20208;-75
2023/03/01 12:28:52;;;;;;;14.63;3.20;;;22.80;79.70;;;;;;5012879;28;20204;-75
2023/03/01 12:31:50;;;;;;;16.33;2.90;;;22.80;79.50;;;;;;4997920;28;20217;-67
2023/03/01 12:34:35;;;;;;;11.07;2.90;;;22.80;79.50;;;;;;4994378;28;20182;-67
2023/03/01 12:37:29;;;;;;;15.43;3.17;;;22.80;79.60;;;;;;4994649;28;20173;-67
2023/03/01 12:40:12;;;;;;;13.83;3.37;;;22.80;79.90;;;;;;4983159;28;20190;-66
2023/03/01 12:42:57;;;;;;;13.43;3.10;;;22.70;79.60;;;;;;4973899;28;20173;-68
2023/03/01 12:45:41;;;;;;;11.10;2.90;;;22.70;79.40;;;;;;4973925;28;20185;-66
2023/03/01 12:48:42;;;;;;;8.23;2.80;;;22.60;79.60;;;;;;4981425;28;20221;-67
2023/03/01 12:51:16;;;;;;;9.77;2.63;;;22.60;79.50;;;;;;4989906;28;20205;-66
2023/03/01 12:53:50;;;;;;;10.63;3.00;;;22.50;79.60;;;;;;4989541;28;20170;-66
2023/03/01 12:56:38;;;;;;;9.40;2.90;;;22.50;79.90;;;;;;4991596;28;20223;-68
2023/03/01 12:59:30;;;;;;;9.50;2.93;;;22.50;80.20;;;;;;4991663;28;20194;-68
2023/03/01 13:02:10;;;;;;;9.67;2.83;;;22.50;80.30;;;;;;4992319;28;20228;-66
2023/03/01 13:05:09;;;;;;;11.23;3.10;;;22.40;80.20;;;;;;4991249;28;20205;-67
2023/03/01 13:07:53;;;;;;;14.80;3.93;;;22.40;80.60;;;;;;4991703;28;20645;-67
2023/03/01 13:10:57;;;;;;;11.40;3.23;;;22.40;80.50;;;;;;4992138;28;20182;-68